Brownhelm, Ohio
Current Conditions -  °F | °C
As of 9:53 AM on Thursday 30 Oct 2014 (Local Time) from KLPR Reporting Station
Broken Clouds Broken Clouds  
Wind Chill: 40°   Ceiling: 4600
Heat Index: 43°   Visibility: 10mi
Dew Point: 39°   Wind: 5mph
Humidity: 86%   Direction: 260°W
Pressure: 30.14"   Gusts: NA
Location:  41.3705°N, 82.2583°W
Report Text: KLPR 301353Z AUTO 26004KT 10SM FEW024 BKN046 06/04 A3014 RMK AO2 SLP211 T00610039 TSNO
Loading
Personal Weather Stations






























Interactive Weather Map
Tropical Storm Tracking
New forecast layout! Learn more

10-Day Weather Forecast

Advertisements
Track Severe Weather on mobile